Accueil
METAR-TAF:

METAR-TAF

Aéroports :

Aéroport international de Chuuk

Weno, Micronésie

latitude: 07-28N, longitude: 151-51E, altitude: 3 m

Observation

Le bulletin a été fait il y a 12 minutes, à 03:54 UTC
Vent 5 kt de sud/sud-ouest
Température 31°C
Humidité 75%
Pression 1008 hPa
Visibilité: 24.1 km
Nuages épars à une hauteur de 1400 ft, Cumulonimbus.
Nuages fragmentés à une hauteur de 12000 ft
Nuages fragmentés à une hauteur de 28000 ft
averses à proximité

METAR: PTKK 250354Z 20005KT 15SM VCSH SCT014CB BKN120 BKN280 31/26 A2978 RMK VCSH N CB N NE S AND W MOV N SLP088 T03060260

Heure: 14:06 (04:06 UTC)

Prévision

Le bulletin a été fait il y a 4 heures et 29 minutes, à 23:37 UTC
Prévision valable du 25 à 00 UTC au 25 à 24 UTC
Vent 7 kt de sud/sud-ouest
Visibilité: 10 km
Nuages épars à une hauteur de 1400 ft
Nuages épars à une hauteur de 12000 ft
averses à proximité

TAF: PTKK 242337Z 2500/2524 20007KT P6SM VCSH SCT014 SCT120

Observations et prévisions météorologiques de plus de 4000 aéroports (messages METAR et TAF).

Les stations disponibles sont représentées par des disques jaunes et rouges sur la carte.

Passer la souris dessus pour voir le nom de la station.

Cliquer dessus pour voir les observations et prévisions météorologiques.

Pour changer de carte: cliquez sur les boutons verts avec une croix noire pour zoomer, sur le bouton vert avec un tiret pour effectuer un zoom arrière, ou sur les flèches vertes pour les cartes adjacentes.


METAR-TAF: